Falcon — WBE7134 — position and weather

sailwx.info

Track history (hours):
 
Tides and Currents Weather Stations Pressure Air Temp Water Temp Dewpoint Dewpoint Depression Visibility Wind Speed Wind Dir Waves Ship Positions

Falcon

Owner: Allied Transportation Company, NORFOLK, VA. More information available from US FCC via Universal Licensing System and Coast Guard Vessel Documentation Center.

Last reported at 2017-May-28 06:29 UTC. Time now 2017-May-28 14:24 UTC.
Position N 32°49' W 078°44'.

Length 37 m; draft 8 m.

Type: Tug. MMSI: 366976720.

Date/timePositionNaut miles runAvg speedWind from/ knotsBaromVisibWave heightAir tempDewpointWater temp
2017-May-28 06:29N 32°49' W 078°44'4 8.8
2017-May-28 06:00N 32°51' W 078°40'4 8.8
2017-May-28 05:30N 32°53' W 078°36'5 8.7
2017-May-28 04:58N 32°56' W 078°31'53 8.2
2017-May-27 22:30N 33°24' W 077°37'10 8.3
2017-May-27 21:20N 33°30' W 077°28'14 8.4
2017-May-27 19:41N 33°39' W 077°15'1 8.1
2017-May-27 19:30N 33°40' W 077°14'18 8.5
2017-May-27 17:23N 33°52' W 076°57'4 8.6
2017-May-27 16:53N 33°54' W 076°54'4 7.8
2017-May-27 16:22N 33°57' W 076°50'3 8.6
2017-May-27 16:00N 33°59' W 076°47'5 8.6
2017-May-27 15:29N 34°02' W 076°43'4 8.5
2017-May-27 15:00N 34°05' W 076°40'4 8.5
2017-May-27 14:30N 34°08' W 076°36'8 8.3
2017-May-27 13:30N 34°14' W 076°29'4 8.1
2017-May-27 13:00N 34°17' W 076°26'4 8.0
2017-May-27 12:30N 34°20' W 076°23'4 7.9
2017-May-27 12:00N 34°23' W 076°19'4 8.1
2017-May-27 11:30N 34°26' W 076°16'4 8.2
2017-May-27 11:00N 34°29' W 076°13'4 8.0
2017-May-27 10:30N 34°32' W 076°10'4 8.1
2017-May-27 10:00N 34°35' W 076°06'4 8.0
2017-May-27 09:30N 34°38' W 076°03'4 7.9
2017-May-27 09:00N 34°40' W 075°59'4 8.0
2017-May-27 08:30N 34°43' W 075°55'4 7.9
2017-May-27 08:00N 34°45' W 075°51'4 7.6
2017-May-27 07:30N 34°48' W 075°48'4 7.6
2017-May-27 07:00N 34°50' W 075°44'4 7.5
2017-May-27 06:30N 34°52' W 075°40'4 7.7
2017-May-27 06:00N 34°54' W 075°36'4 7.6
2017-May-27 05:30N 34°56' W 075°32'4 7.7
2017-May-27 05:00N 34°59' W 075°29'4 7.7
2017-May-27 04:30N 35°02' W 075°26'4 7.5
2017-May-27 04:00N 35°05' W 075°23'4 7.3
2017-May-27 03:30N 35°08' W 075°21'263 5.4
2017-May-25 02:58N 39°25' W 074°11'5 9.1
2017-May-25 02:28N 39°29' W 074°09'4 9.1
2017-May-25 01:59N 39°33' W 074°07'5 9.0
2017-May-25 01:27N 39°37' W 074°04'4 8.9
2017-May-25 01:00N 39°41' W 074°02'4 8.8
2017-May-25 00:30N 39°45' W 073°59'4 8.8
2017-May-25 00:00N 39°49' W 073°57'31 8.2
2017-May-24 20:10N 40°20' W 073°55'2 8.9
2017-May-24 19:55N 40°22' W 073°55'4 8.8
2017-May-24 19:30N 40°26' W 073°54'4 7.4
2017-May-24 18:59N 40°30' W 073°56'4 8.8
2017-May-24 18:30N 40°32' W 074°01'510.4
2017-May-24 18:00N 40°37' W 074°03'510.9
2017-May-24 17:30N 40°42' W 074°02'611.8
2017-May-24 17:00N 40°48' W 073°59'611.2
2017-May-24 16:30N 40°53' W 073°56'3 5.9
2017-May-24 15:57N 40°56' W 073°54'0 0.0
2017-May-24 15:30N 40°56' W 073°54'0 0.0
2017-May-24 14:42N 40°56' W 073°54'0 0.3
2017-May-24 14:29N 40°56' W 073°54'0 0.0
2017-May-24 13:26N 40°56' W 073°54'0 0.0
2017-May-24 12:59N 40°56' W 073°54'0 0.0
2017-May-24 12:29N 40°56' W 073°54'0 0.0
2017-May-24 11:59N 40°56' W 073°54'0 0.0
2017-May-24 11:29N 40°56' W 073°54'0 0.0
2017-May-24 10:56N 40°56' W 073°54'0 0.0
2017-May-24 10:29N 40°56' W 073°54'0 0.0
2017-May-24 09:59N 40°56' W 073°54'0 0.0
2017-May-24 09:26N 40°56' W 073°54'0 0.0
2017-May-24 08:59N 40°56' W 073°54'0 0.0
2017-May-24 08:26N 40°56' W 073°54'0 0.0
2017-May-24 07:56N 40°56' W 073°54'0 0.0
2017-May-24 07:26N 40°56' W 073°54'0 0.0
2017-May-24 06:56N 40°56' W 073°54'0 0.0
2017-May-24 06:29N 40°56' W 073°54'0 0.0
2017-May-24 05:59N 40°56' W 073°54'0 0.0
2017-May-24 05:26N 40°56' W 073°54'0 0.0
2017-May-24 04:59N 40°56' W 073°54'0 0.0
2017-May-24 04:23N 40°56' W 073°54'0 0.0
2017-May-24 03:59N 40°56' W 073°54'0 0.0
2017-May-24 03:26N 40°56' W 073°54'0 0.0
2017-May-24 02:59N 40°56' W 073°54'0 0.0
2017-May-24 02:26N 40°56' W 073°54'0 0.0
2017-May-24 01:56N 40°56' W 073°54'0 0.0
2017-May-24 01:29N 40°56' W 073°54'0 0.0
2017-May-24 00:53N 40°56' W 073°54'0 0.0
2017-May-24 00:29N 40°56' W 073°54'0 0.0
2017-May-23 23:59N 40°56' W 073°54'0 0.0
2017-May-23 23:26N 40°56' W 073°54'0 0.0
2017-May-23 22:56N 40°56' W 073°54'0 0.0
2017-May-23 22:29N 40°56' W 073°54'0 0.0
2017-May-23 21:59N 40°56' W 073°54'0 0.0
2017-May-23 21:29N 40°56' W 073°54'0 0.0
2017-May-23 20:59N 40°56' W 073°54'0 0.0
2017-May-23 20:29N 40°56' W 073°54'0 0.0
2017-May-23 19:59N 40°56' W 073°54'0 0.0
2017-May-23 19:29N 40°56' W 073°54'0 0.0
2017-May-23 18:59N 40°56' W 073°54'0 0.0
2017-May-23 18:29N 40°56' W 073°54'0 0.0
2017-May-23 17:59N 40°56' W 073°54'0 0.0
2017-May-23 17:29N 40°56' W 073°54'0 0.0
2017-May-23 16:59N 40°56' W 073°54'0 0.0
2017-May-23 16:26N 40°56' W 073°54'0 0.0
2017-May-23 15:56N 40°56' W 073°54'0 0.0
2017-May-23 15:29N 40°56' W 073°54'0 0.0
2017-May-23 14:59N 40°56' W 073°54'0 0.0
2017-May-23 14:29N 40°56' W 073°54'0 0.4
2017-May-23 13:28N 40°56' W 073°55'0 0.0
2017-May-23 12:01N 40°56' W 073°55'0 0.0
2017-May-23 11:49N 40°56' W 073°55'0 0.0
2017-May-23 11:19N 40°56' W 073°55'0 0.0
2017-May-23 10:58N 40°56' W 073°55'0 0.8
2017-May-23 10:27N 40°56' W 073°54'0 0.0
2017-May-23 10:00N 40°56' W 073°54'0 0.0
2017-May-23 09:30N 40°56' W 073°54'0 0.0
2017-May-23 09:00N 40°56' W 073°54'0 0.0
2017-May-23 08:30N 40°56' W 073°54'0 0.0
2017-May-23 08:00N 40°56' W 073°54'0 0.0
2017-May-23 07:30N 40°56' W 073°54'0 0.0
2017-May-23 07:00N 40°56' W 073°54'0 0.0
2017-May-23 06:30N 40°56' W 073°54'0 0.0
2017-May-23 06:00N 40°56' W 073°54'0 0.0
2017-May-23 05:30N 40°56' W 073°54'0 0.0
2017-May-23 05:00N 40°56' W 073°54'0 0.0
2017-May-23 04:30N 40°56' W 073°54'0 0.0
2017-May-23 03:54N 40°56' W 073°54'0 0.0
2017-May-23 03:24N 40°56' W 073°54'0 0.0
2017-May-23 03:00N 40°56' W 073°54'0 0.0
2017-May-23 02:30N 40°56' W 073°54'0 0.0
2017-May-23 01:54N 40°56' W 073°54'0 0.0
2017-May-23 01:30N 40°56' W 073°54'0 0.0
2017-May-23 01:00N 40°56' W 073°54'0 0.0
2017-May-23 00:30N 40°56' W 073°54'0 0.0
2017-May-23 00:00N 40°56' W 073°54'0 0.0
2017-May-22 23:24N 40°56' W 073°54'0 0.0
2017-May-22 23:00N 40°56' W 073°54'0 0.0
2017-May-22 22:30N 40°56' W 073°54'0 0.0
2017-May-22 22:00N 40°56' W 073°54'0 0.1
2017-May-22 21:29N 40°56' W 073°54'0 0.2
2017-May-22 20:59N 40°56' W 073°54'0 0.0
2017-May-22 20:29N 40°56' W 073°54'0 0.0
2017-May-22 19:59N 40°56' W 073°54'0 0.0
2017-May-22 19:29N 40°56' W 073°54'0 0.0
2017-May-22 18:56N 40°56' W 073°54'1 1.3
2017-May-22 18:30N 40°56' W 073°55'0 0.0
2017-May-22 17:58N 40°56' W 073°55'0 0.2
2017-May-22 17:28N 40°55' W 073°55'1 1.2
2017-May-22 16:57N 40°56' W 073°54'0 0.0
2017-May-22 16:27N 40°56' W 073°54'0 0.0
2017-May-22 16:00N 40°56' W 073°54'0 0.0
2017-May-22 15:30N 40°56' W 073°54'0 0.2
2017-May-22 15:00N 40°56' W 073°54'0 0.1
2017-May-22 14:00N 40°56' W 073°54'0 0.0
2017-May-22 13:30N 40°56' W 073°54'0 0.0
2017-May-22 12:57N 40°56' W 073°54'0 0.0
2017-May-22 12:27N 40°56' W 073°54'0 0.0
2017-May-22 12:00N 40°56' W 073°54'0 0.0
2017-May-22 11:30N 40°56' W 073°54'0 0.0
2017-May-22 11:00N 40°56' W 073°54'0 0.0
2017-May-22 10:30N 40°56' W 073°54'0 0.0
2017-May-22 10:00N 40°56' W 073°54'0 0.0
2017-May-22 09:30N 40°56' W 073°54'0 0.0
2017-May-22 09:00N 40°56' W 073°54'0 0.0
2017-May-22 08:21N 40°56' W 073°54'0 0.0
2017-May-22 08:00N 40°56' W 073°54'0 0.0
2017-May-22 07:30N 40°56' W 073°54'0 0.0
2017-May-22 07:00N 40°56' W 073°54'0 0.0
2017-May-22 06:30N 40°56' W 073°54'0 0.0
2017-May-22 06:00N 40°56' W 073°54'0 0.0
2017-May-22 05:30N 40°56' W 073°54'0 0.0
2017-May-22 05:00N 40°56' W 073°54'0 0.0
2017-May-22 04:30N 40°56' W 073°54'0 0.0
2017-May-22 04:00N 40°56' W 073°54'0 0.0
2017-May-22 03:30N 40°56' W 073°54'0 0.0
2017-May-22 03:00N 40°56' W 073°54'0 0.0
2017-May-22 02:30N 40°56' W 073°54'0 0.0
2017-May-22 02:00N 40°56' W 073°54'0 0.0
2017-May-22 01:30N 40°56' W 073°54'0 0.0
2017-May-22 01:00N 40°56' W 073°54'0 0.0
2017-May-22 00:30N 40°56' W 073°54'0 0.0
2017-May-21 23:54N 40°56' W 073°54'0 0.0
2017-May-21 23:27N 40°56' W 073°54'0 0.0
2017-May-21 22:57N 40°56' W 073°54'0 0.0
2017-May-21 22:30N 40°56' W 073°54'0 0.0
2017-May-21 22:00N 40°56' W 073°54'0 0.0
2017-May-21 21:27N 40°56' W 073°54'0 0.0
2017-May-21 21:00N 40°56' W 073°54'0 0.0
2017-May-21 20:27N 40°56' W 073°54'0 0.0
2017-May-21 20:00N 40°56' W 073°54'0 0.0
2017-May-21 19:15N 40°56' W 073°54'0 0.0
2017-May-21 19:00N 40°56' W 073°54'0 0.0
2017-May-21 18:30N 40°56' W 073°54'0 0.0
2017-May-21 17:57N 40°56' W 073°54'0 0.0
2017-May-21 17:30N 40°56' W 073°54'0 0.0
2017-May-21 16:54N 40°56' W 073°54'0 0.0
2017-May-21 16:30N 40°56' W 073°54'0 0.0
2017-May-21 16:00N 40°56' W 073°54'0 0.0
2017-May-21 15:30N 40°56' W 073°54'0 0.0
2017-May-21 15:00N 40°56' W 073°54'0 0.0
2017-May-21 13:57N 40°56' W 073°54'0 0.0
2017-May-21 13:30N 40°56' W 073°54'0 0.0
2017-May-21 13:00N 40°56' W 073°54'0 0.0
2017-May-21 12:30N 40°56' W 073°54'0 0.0
2017-May-21 12:00N 40°56' W 073°54'0 0.0
2017-May-21 11:30N 40°56' W 073°54'0 0.0
2017-May-21 11:00N 40°56' W 073°54'0 0.0
2017-May-21 10:24N 40°56' W 073°54'0 0.0
2017-May-21 10:00N 40°56' W 073°54'0 0.0
2017-May-21 09:30N 40°56' W 073°54'0 0.0
2017-May-21 09:00N 40°56' W 073°54'0 0.0
2017-May-21 08:30N 40°56' W 073°54'0 0.0
2017-May-21 08:00N 40°56' W 073°54'0 0.0
2017-May-21 07:30N 40°56' W 073°54'0 0.0
2017-May-21 06:54N 40°56' W 073°54'0 0.0
2017-May-21 06:30N 40°56' W 073°54'0 0.0
2017-May-21 05:57N 40°56' W 073°54'0 0.0
2017-May-21 05:30N 40°56' W 073°54'0 0.0
2017-May-21 05:00N 40°56' W 073°54'0 0.0
2017-May-21 04:30N 40°56' W 073°54'0 0.0
2017-May-21 04:00N 40°56' W 073°54'0 0.0
2017-May-21 03:30N 40°56' W 073°54'0 0.0
2017-May-21 03:00N 40°56' W 073°54'0 0.0
2017-May-21 02:24N 40°56' W 073°54'0 0.0
2017-May-21 02:00N 40°56' W 073°54'0 0.0
2017-May-21 01:30N 40°56' W 073°54'0 0.0
2017-May-21 01:00N 40°56' W 073°54'0 0.7
2017-May-21 00:30N 40°56' W 073°54'0 0.0
2017-May-20 23:28N 40°56' W 073°54'4 7.6
2017-May-20 23:00N 40°53' W 073°56'612.3
2017-May-20 22:30N 40°47' W 073°59'611.9
2017-May-20 22:00N 40°42' W 074°02'510.3
2017-May-20 21:30N 40°39' W 074°07'3 5.5
2017-May-20 20:55N 40°38' W 074°12'0 0.0
2017-May-20 20:28N 40°38' W 074°12'0 0.0
2017-May-20 19:58N 40°38' W 074°12'0 0.0
2017-May-20 19:28N 40°38' W 074°12'0 0.0
2017-May-20 18:58N 40°38' W 074°12'0 0.0
2017-May-20 18:28N 40°38' W 074°12'0 0.0
2017-May-20 17:58N 40°38' W 074°12'0 0.0
2017-May-20 17:28N 40°38' W 074°12'0 0.1
2017-May-20 17:00N 40°38' W 074°12'0 0.1
2017-May-20 16:30N 40°38' W 074°12'0 0.0
2017-May-20 16:00N 40°38' W 074°12'0 0.0
2017-May-20 15:30N 40°38' W 074°12'0 0.0
2017-May-20 15:00N 40°38' W 074°12'2 2.4
2017-May-20 14:00N 40°39' W 074°09'1 2.1
2017-May-20 13:30N 40°39' W 074°07'0 0.0
2017-May-20 13:00N 40°39' W 074°07'0 0.0
2017-May-20 12:30N 40°39' W 074°07'0 0.0
2017-May-20 12:00N 40°39' W 074°07'0 0.3
2017-May-20 11:30N 40°39' W 074°07'4 7.1
2017-May-20 11:00N 40°40' W 074°03'510.8
2017-May-20 10:31N 40°45' W 074°01'611.1
2017-May-20 10:00N 40°50' W 073°57'510.6
2017-May-20 09:30N 40°55' W 073°55'1 1.2
2017-May-20 08:58N 40°56' W 073°54'0 0.0
2017-May-20 08:28N 40°56' W 073°54'0 0.0
2017-May-20 07:58N 40°56' W 073°54'0 0.0
2017-May-20 07:28N 40°56' W 073°54'0 0.0
2017-May-20 06:52N 40°56' W 073°54'0 0.0
2017-May-20 06:28N 40°56' W 073°54'0 0.0
2017-May-20 05:58N 40°56' W 073°54'0 0.0
2017-May-20 05:28N 40°56' W 073°54'0 0.0
2017-May-20 04:58N 40°56' W 073°54'0 0.0
2017-May-20 04:28N 40°56' W 073°54'0 0.0
2017-May-20 03:55N 40°56' W 073°54'0 0.0
2017-May-20 03:25N 40°56' W 073°54'0 0.0
2017-May-20 02:55N 40°56' W 073°54'0 0.0
2017-May-20 02:28N 40°56' W 073°54'0 0.0
2017-May-20 01:55N 40°56' W 073°54'0 0.0
2017-May-20 01:28N 40°56' W 073°54'0 0.0
2017-May-20 00:58N 40°56' W 073°54'0 0.0
2017-May-20 00:28N 40°56' W 073°54'0 0.0
2017-May-19 23:55N 40°56' W 073°54'0 0.0
2017-May-19 23:28N 40°56' W 073°54'0 0.0
2017-May-19 22:55N 40°56' W 073°54'0 0.0
2017-May-19 22:28N 40°56' W 073°54'0 0.0
2017-May-19 21:58N 40°56' W 073°54'0 0.0
2017-May-19 21:25N 40°56' W 073°54'0 0.0
2017-May-19 20:58N 40°56' W 073°54'0 0.0
2017-May-19 20:25N 40°56' W 073°54'0 0.0
2017-May-19 19:55N 40°56' W 073°54'0 0.0
2017-May-19 19:19N 40°56' W 073°54'0 0.0
2017-May-19 18:58N 40°56' W 073°54'0 0.0
2017-May-19 18:22N 40°56' W 073°54'0 0.0
2017-May-19 17:58N 40°56' W 073°54'0 0.0
2017-May-19 17:28N 40°56' W 073°54'0 0.0
2017-May-19 16:55N 40°56' W 073°54'0 0.0
2017-May-19 16:25N 40°56' W 073°54'0 0.0
2017-May-19 15:55N 40°56' W 073°54'0 0.0
2017-May-19 15:28N 40°56' W 073°54'0 0.0
2017-May-19 14:58N 40°56' W 073°54'0 0.0
2017-May-19 13:58N 40°56' W 073°54'0 0.0
2017-May-19 13:25N 40°56' W 073°54'0 0.0
2017-May-19 12:46N 40°56' W 073°54'0 0.0
2017-May-19 12:25N 40°56' W 073°54'0 0.0
2017-May-19 11:55N 40°56' W 073°54'0 0.0
2017-May-19 11:28N 40°56' W 073°54'0 0.0
2017-May-19 10:58N 40°56' W 073°54'0 0.0
2017-May-19 10:28N 40°56' W 073°54'0 0.0
2017-May-19 09:58N 40°56' W 073°54'0 0.0
2017-May-19 09:28N 40°56' W 073°54'0 0.0
2017-May-19 08:55N 40°56' W 073°54'0 0.0
2017-May-19 08:28N 40°56' W 073°54'0 0.0
2017-May-19 07:58N 40°56' W 073°54'0 0.0
2017-May-19 07:25N 40°56' W 073°54'0 0.0
2017-May-19 06:55N 40°56' W 073°54'0 0.0
2017-May-19 06:28N 40°56' W 073°54'0 0.0
2017-May-19 05:58N 40°56' W 073°54'0 0.0
2017-May-19 05:28N 40°56' W 073°54'0 0.0
2017-May-19 04:55N 40°56' W 073°54'0 0.0
2017-May-19 04:19N 40°56' W 073°54'0 0.0
2017-May-19 03:49N 40°56' W 073°54'0 0.0
2017-May-19 03:28N 40°56' W 073°54'0 0.0
2017-May-19 02:55N 40°56' W 073°54'0 0.0
2017-May-19 02:28N 40°56' W 073°54'0 0.0
2017-May-19 01:58N 40°56' W 073°54'0 0.0
2017-May-19 01:28N 40°56' W 073°54'0 0.0
2017-May-19 00:58N 40°56' W 073°54'0 0.0
2017-May-19 00:28N 40°56' W 073°54'0 0.0
2017-May-18 23:55N 40°56' W 073°54'0 0.0
2017-May-18 23:28N 40°56' W 073°54'0 0.0
2017-May-18 22:58N 40°56' W 073°54'0 0.0
2017-May-18 22:25N 40°56' W 073°54'0 0.0
2017-May-18 21:58N 40°56' W 073°54'0 0.0
2017-May-18 21:28N 40°56' W 073°54'0 0.1
2017-May-18 20:56N 40°56' W 073°54'0 0.1
2017-May-18 20:29N 40°56' W 073°54'0 0.1
2017-May-18 19:59N 40°56' W 073°54'0 0.0
2017-May-18 19:26N 40°56' W 073°54'0 0.0
2017-May-18 18:53N 40°56' W 073°54'0 0.0
2017-May-18 18:26N 40°56' W 073°54'0 0.0
2017-May-18 17:59N 40°56' W 073°54'0 0.0
2017-May-18 17:29N 40°56' W 073°54'0 0.0
2017-May-18 16:53N 40°56' W 073°54'0 0.0
2017-May-18 16:29N 40°56' W 073°54'0 0.0
2017-May-18 15:56N 40°56' W 073°54'0 0.0
2017-May-18 15:29N 40°56' W 073°54'0 0.0
2017-May-18 14:59N 40°56' W 073°54'0 0.0
2017-May-18 13:59N 40°56' W 073°54'0 0.0
2017-May-18 13:23N 40°56' W 073°54'0 0.0
2017-May-18 12:56N 40°56' W 073°54'0 0.0
2017-May-18 12:29N 40°56' W 073°54'0 0.0
2017-May-18 11:59N 40°56' W 073°54'0 0.0
2017-May-18 11:29N 40°56' W 073°54'0 0.0
2017-May-18 10:59N 40°56' W 073°54'0 0.1
2017-May-18 10:27N 40°56' W 073°54'0 0.0
2017-May-18 09:51N 40°56' W 073°54'0 0.3
2017-May-18 09:27N 40°56' W 073°54'1 1.0
2017-May-18 08:56N 40°56' W 073°55'0 0.1
2017-May-18 08:23N 40°56' W 073°55'0 0.0
2017-May-18 07:53N 40°56' W 073°55'0 0.0
2017-May-18 07:29N 40°56' W 073°55'0 0.0
2017-May-18 06:47N 40°56' W 073°55'0 0.0
2017-May-18 06:29N 40°56' W 073°55'  
Track history (hours):
 
Tides and Currents Weather Stations Pressure Air Temp Water Temp Dewpoint Dewpoint Depression Visibility Wind Speed Wind Dir Waves Ship Positions

Falcon

Owner: Allied Transportation Company, NORFOLK, VA. More information available from US FCC via Universal Licensing System and Coast Guard Vessel Documentation Center.

Last reported at 2017-May-28 06:29 UTC. Time now 2017-May-28 14:24 UTC.
Position N 32°49' W 078°44'.

Length 37 m; draft 8 m.

Type: Tug. MMSI: 366976720.

Date/timePositionNaut miles runAvg speedWind from/ knotsBaromVisibWave heightAir tempDewpointWater temp
2017-May-28 06:29N 32°49' W 078°44'4 8.8
2017-May-28 06:00N 32°51' W 078°40'4 8.8
2017-May-28 05:30N 32°53' W 078°36'5 8.7
2017-May-28 04:58N 32°56' W 078°31'53 8.2
2017-May-27 22:30N 33°24' W 077°37'10 8.3
2017-May-27 21:20N 33°30' W 077°28'14 8.4
2017-May-27 19:41N 33°39' W 077°15'1 8.1
2017-May-27 19:30N 33°40' W 077°14'18 8.5
2017-May-27 17:23N 33°52' W 076°57'4 8.6
2017-May-27 16:53N 33°54' W 076°54'4 7.8
2017-May-27 16:22N 33°57' W 076°50'3 8.6
2017-May-27 16:00N 33°59' W 076°47'5 8.6
2017-May-27 15:29N 34°02' W 076°43'4 8.5
2017-May-27 15:00N 34°05' W 076°40'4 8.5
2017-May-27 14:30N 34°08' W 076°36'8 8.3
2017-May-27 13:30N 34°14' W 076°29'4 8.1
2017-May-27 13:00N 34°17' W 076°26'4 8.0
2017-May-27 12:30N 34°20' W 076°23'4 7.9
2017-May-27 12:00N 34°23' W 076°19'4 8.1
2017-May-27 11:30N 34°26' W 076°16'4 8.2
2017-May-27 11:00N 34°29' W 076°13'4 8.0
2017-May-27 10:30N 34°32' W 076°10'4 8.1
2017-May-27 10:00N 34°35' W 076°06'4 8.0
2017-May-27 09:30N 34°38' W 076°03'4 7.9
2017-May-27 09:00N 34°40' W 075°59'4 8.0
2017-May-27 08:30N 34°43' W 075°55'4 7.9
2017-May-27 08:00N 34°45' W 075°51'4 7.6
2017-May-27 07:30N 34°48' W 075°48'4 7.6
2017-May-27 07:00N 34°50' W 075°44'4 7.5
2017-May-27 06:30N 34°52' W 075°40'4 7.7
2017-May-27 06:00N 34°54' W 075°36'4 7.6
2017-May-27 05:30N 34°56' W 075°32'4 7.7
2017-May-27 05:00N 34°59' W 075°29'4 7.7
2017-May-27 04:30N 35°02' W 075°26'4 7.5
2017-May-27 04:00N 35°05' W 075°23'4 7.3
2017-May-27 03:30N 35°08' W 075°21'263 5.4
2017-May-25 02:58N 39°25' W 074°11'5 9.1
2017-May-25 02:28N 39°29' W 074°09'4 9.1
2017-May-25 01:59N 39°33' W 074°07'5 9.0
2017-May-25 01:27N 39°37' W 074°04'4 8.9
2017-May-25 01:00N 39°41' W 074°02'4 8.8
2017-May-25 00:30N 39°45' W 073°59'4 8.8
2017-May-25 00:00N 39°49' W 073°57'31 8.2
2017-May-24 20:10N 40°20' W 073°55'2 8.9
2017-May-24 19:55N 40°22' W 073°55'4 8.8
2017-May-24 19:30N 40°26' W 073°54'4 7.4
2017-May-24 18:59N 40°30' W 073°56'4 8.8
2017-May-24 18:30N 40°32' W 074°01'510.4
2017-May-24 18:00N 40°37' W 074°03'510.9
2017-May-24 17:30N 40°42' W 074°02'611.8
2017-May-24 17:00N 40°48' W 073°59'611.2
2017-May-24 16:30N 40°53' W 073°56'3 5.9
2017-May-24 15:57N 40°56' W 073°54'0 0.0
2017-May-24 15:30N 40°56' W 073°54'0 0.0
2017-May-24 14:42N 40°56' W 073°54'0 0.3
2017-May-24 14:29N 40°56' W 073°54'0 0.0
2017-May-24 13:26N 40°56' W 073°54'0 0.0
2017-May-24 12:59N 40°56' W 073°54'0 0.0
2017-May-24 12:29N 40°56' W 073°54'0 0.0
2017-May-24 11:59N 40°56' W 073°54'0 0.0
2017-May-24 11:29N 40°56' W 073°54'0 0.0
2017-May-24 10:56N 40°56' W 073°54'0 0.0
2017-May-24 10:29N 40°56' W 073°54'0 0.0
2017-May-24 09:59N 40°56' W 073°54'0 0.0
2017-May-24 09:26N 40°56' W 073°54'0 0.0
2017-May-24 08:59N 40°56' W 073°54'0 0.0
2017-May-24 08:26N 40°56' W 073°54'0 0.0
2017-May-24 07:56N 40°56' W 073°54'0 0.0
2017-May-24 07:26N 40°56' W 073°54'0 0.0
2017-May-24 06:56N 40°56' W 073°54'0 0.0
2017-May-24 06:29N 40°56' W 073°54'0 0.0
2017-May-24 05:59N 40°56' W 073°54'0 0.0
2017-May-24 05:26N 40°56' W 073°54'0 0.0
2017-May-24 04:59N 40°56' W 073°54'0 0.0
2017-May-24 04:23N 40°56' W 073°54'0 0.0
2017-May-24 03:59N 40°56' W 073°54'0 0.0
2017-May-24 03:26N 40°56' W 073°54'0 0.0
2017-May-24 02:59N 40°56' W 073°54'0 0.0
2017-May-24 02:26N 40°56' W 073°54'0 0.0
2017-May-24 01:56N 40°56' W 073°54'0 0.0
2017-May-24 01:29N 40°56' W 073°54'0 0.0
2017-May-24 00:53N 40°56' W 073°54'0 0.0
2017-May-24 00:29N 40°56' W 073°54'0 0.0
2017-May-23 23:59N 40°56' W 073°54'0 0.0
2017-May-23 23:26N 40°56' W 073°54'0 0.0
2017-May-23 22:56N 40°56' W 073°54'0 0.0
2017-May-23 22:29N 40°56' W 073°54'0 0.0
2017-May-23 21:59N 40°56' W 073°54'0 0.0
2017-May-23 21:29N 40°56' W 073°54'0 0.0
2017-May-23 20:59N 40°56' W 073°54'0 0.0
2017-May-23 20:29N 40°56' W 073°54'0 0.0
2017-May-23 19:59N 40°56' W 073°54'0 0.0
2017-May-23 19:29N 40°56' W 073°54'0 0.0
2017-May-23 18:59N 40°56' W 073°54'0 0.0
2017-May-23 18:29N 40°56' W 073°54'0 0.0
2017-May-23 17:59N 40°56' W 073°54'0 0.0
2017-May-23 17:29N 40°56' W 073°54'0 0.0
2017-May-23 16:59N 40°56' W 073°54'0 0.0
2017-May-23 16:26N 40°56' W 073°54'0 0.0
2017-May-23 15:56N 40°56' W 073°54'0 0.0
2017-May-23 15:29N 40°56' W 073°54'0 0.0
2017-May-23 14:59N 40°56' W 073°54'0 0.0
2017-May-23 14:29N 40°56' W 073°54'0 0.4
2017-May-23 13:28N 40°56' W 073°55'0 0.0
2017-May-23 12:01N 40°56' W 073°55'0 0.0
2017-May-23 11:49N 40°56' W 073°55'0 0.0
2017-May-23 11:19N 40°56' W 073°55'0 0.0
2017-May-23 10:58N 40°56' W 073°55'0 0.8
2017-May-23 10:27N 40°56' W 073°54'0 0.0
2017-May-23 10:00N 40°56' W 073°54'0 0.0
2017-May-23 09:30N 40°56' W 073°54'0 0.0
2017-May-23 09:00N 40°56' W 073°54'0 0.0
2017-May-23 08:30N 40°56' W 073°54'0 0.0
2017-May-23 08:00N 40°56' W 073°54'0 0.0
2017-May-23 07:30N 40°56' W 073°54'0 0.0
2017-May-23 07:00N 40°56' W 073°54'0 0.0
2017-May-23 06:30N 40°56' W 073°54'0 0.0
2017-May-23 06:00N 40°56' W 073°54'0 0.0
2017-May-23 05:30N 40°56' W 073°54'0 0.0
2017-May-23 05:00N 40°56' W 073°54'0 0.0
2017-May-23 04:30N 40°56' W 073°54'0 0.0
2017-May-23 03:54N 40°56' W 073°54'0 0.0
2017-May-23 03:24N 40°56' W 073°54'0 0.0
2017-May-23 03:00N 40°56' W 073°54'0 0.0
2017-May-23 02:30N 40°56' W 073°54'0 0.0
2017-May-23 01:54N 40°56' W 073°54'0 0.0
2017-May-23 01:30N 40°56' W 073°54'0 0.0
2017-May-23 01:00N 40°56' W 073°54'0 0.0
2017-May-23 00:30N 40°56' W 073°54'0 0.0
2017-May-23 00:00N 40°56' W 073°54'0 0.0
2017-May-22 23:24N 40°56' W 073°54'0 0.0
2017-May-22 23:00N 40°56' W 073°54'0 0.0
2017-May-22 22:30N 40°56' W 073°54'0 0.0
2017-May-22 22:00N 40°56' W 073°54'0 0.1
2017-May-22 21:29N 40°56' W 073°54'0 0.2
2017-May-22 20:59N 40°56' W 073°54'0 0.0
2017-May-22 20:29N 40°56' W 073°54'0 0.0
2017-May-22 19:59N 40°56' W 073°54'0 0.0
2017-May-22 19:29N 40°56' W 073°54'0 0.0
2017-May-22 18:56N 40°56' W 073°54'1 1.3
2017-May-22 18:30N 40°56' W 073°55'0 0.0
2017-May-22 17:58N 40°56' W 073°55'0 0.2
2017-May-22 17:28N 40°55' W 073°55'1 1.2
2017-May-22 16:57N 40°56' W 073°54'0 0.0
2017-May-22 16:27N 40°56' W 073°54'0 0.0
2017-May-22 16:00N 40°56' W 073°54'0 0.0
2017-May-22 15:30N 40°56' W 073°54'0 0.2
2017-May-22 15:00N 40°56' W 073°54'0 0.1
2017-May-22 14:00N 40°56' W 073°54'0 0.0
2017-May-22 13:30N 40°56' W 073°54'0 0.0
2017-May-22 12:57N 40°56' W 073°54'0 0.0
2017-May-22 12:27N 40°56' W 073°54'0 0.0
2017-May-22 12:00N 40°56' W 073°54'0 0.0
2017-May-22 11:30N 40°56' W 073°54'0 0.0
2017-May-22 11:00N 40°56' W 073°54'0 0.0
2017-May-22 10:30N 40°56' W 073°54'0 0.0
2017-May-22 10:00N 40°56' W 073°54'0 0.0
2017-May-22 09:30N 40°56' W 073°54'0 0.0
2017-May-22 09:00N 40°56' W 073°54'0 0.0
2017-May-22 08:21N 40°56' W 073°54'0 0.0
2017-May-22 08:00N 40°56' W 073°54'0 0.0
2017-May-22 07:30N 40°56' W 073°54'0 0.0
2017-May-22 07:00N 40°56' W 073°54'0 0.0
2017-May-22 06:30N 40°56' W 073°54'0 0.0
2017-May-22 06:00N 40°56' W 073°54'0 0.0
2017-May-22 05:30N 40°56' W 073°54'0 0.0
2017-May-22 05:00N 40°56' W 073°54'0 0.0
2017-May-22 04:30N 40°56' W 073°54'0 0.0
2017-May-22 04:00N 40°56' W 073°54'0 0.0
2017-May-22 03:30N 40°56' W 073°54'0 0.0
2017-May-22 03:00N 40°56' W 073°54'0 0.0
2017-May-22 02:30N 40°56' W 073°54'0 0.0
2017-May-22 02:00N 40°56' W 073°54'0 0.0
2017-May-22 01:30N 40°56' W 073°54'0 0.0
2017-May-22 01:00N 40°56' W 073°54'0 0.0
2017-May-22 00:30N 40°56' W 073°54'0 0.0
2017-May-21 23:54N 40°56' W 073°54'0 0.0
2017-May-21 23:27N 40°56' W 073°54'0 0.0
2017-May-21 22:57N 40°56' W 073°54'0 0.0
2017-May-21 22:30N 40°56' W 073°54'0 0.0
2017-May-21 22:00N 40°56' W 073°54'0 0.0
2017-May-21 21:27N 40°56' W 073°54'0 0.0
2017-May-21 21:00N 40°56' W 073°54'0 0.0
2017-May-21 20:27N 40°56' W 073°54'0 0.0
2017-May-21 20:00N 40°56' W 073°54'0 0.0
2017-May-21 19:15N 40°56' W 073°54'0 0.0
2017-May-21 19:00N 40°56' W 073°54'0 0.0
2017-May-21 18:30N 40°56' W 073°54'0 0.0
2017-May-21 17:57N 40°56' W 073°54'0 0.0
2017-May-21 17:30N 40°56' W 073°54'0 0.0
2017-May-21 16:54N 40°56' W 073°54'0 0.0
2017-May-21 16:30N 40°56' W 073°54'0 0.0
2017-May-21 16:00N 40°56' W 073°54'0 0.0
2017-May-21 15:30N 40°56' W 073°54'0 0.0
2017-May-21 15:00N 40°56' W 073°54'0 0.0
2017-May-21 13:57N 40°56' W 073°54'0 0.0
2017-May-21 13:30N 40°56' W 073°54'0 0.0
2017-May-21 13:00N 40°56' W 073°54'0 0.0
2017-May-21 12:30N 40°56' W 073°54'0 0.0
2017-May-21 12:00N 40°56' W 073°54'0 0.0
2017-May-21 11:30N 40°56' W 073°54'0 0.0
2017-May-21 11:00N 40°56' W 073°54'0 0.0
2017-May-21 10:24N 40°56' W 073°54'0 0.0
2017-May-21 10:00N 40°56' W 073°54'0 0.0
2017-May-21 09:30N 40°56' W 073°54'0 0.0
2017-May-21 09:00N 40°56' W 073°54'0 0.0
2017-May-21 08:30N 40°56' W 073°54'0 0.0
2017-May-21 08:00N 40°56' W 073°54'0 0.0
2017-May-21 07:30N 40°56' W 073°54'0 0.0
2017-May-21 06:54N 40°56' W 073°54'0 0.0
2017-May-21 06:30N 40°56' W 073°54'0 0.0
2017-May-21 05:57N 40°56' W 073°54'0 0.0
2017-May-21 05:30N 40°56' W 073°54'0 0.0
2017-May-21 05:00N 40°56' W 073°54'0 0.0
2017-May-21 04:30N 40°56' W 073°54'0 0.0
2017-May-21 04:00N 40°56' W 073°54'0 0.0
2017-May-21 03:30N 40°56' W 073°54'0 0.0
2017-May-21 03:00N 40°56' W 073°54'0 0.0
2017-May-21 02:24N 40°56' W 073°54'0 0.0
2017-May-21 02:00N 40°56' W 073°54'0 0.0
2017-May-21 01:30N 40°56' W 073°54'0 0.0
2017-May-21 01:00N 40°56' W 073°54'0 0.7
2017-May-21 00:30N 40°56' W 073°54'0 0.0
2017-May-20 23:28N 40°56' W 073°54'4 7.6
2017-May-20 23:00N 40°53' W 073°56'612.3
2017-May-20 22:30N 40°47' W 073°59'611.9
2017-May-20 22:00N 40°42' W 074°02'510.3
2017-May-20 21:30N 40°39' W 074°07'3 5.5
2017-May-20 20:55N 40°38' W 074°12'0 0.0
2017-May-20 20:28N 40°38' W 074°12'0 0.0
2017-May-20 19:58N 40°38' W 074°12'0 0.0
2017-May-20 19:28N 40°38' W 074°12'0 0.0
2017-May-20 18:58N 40°38' W 074°12'0 0.0
2017-May-20 18:28N 40°38' W 074°12'0 0.0
2017-May-20 17:58N 40°38' W 074°12'0 0.0
2017-May-20 17:28N 40°38' W 074°12'0 0.1
2017-May-20 17:00N 40°38' W 074°12'0 0.1
2017-May-20 16:30N 40°38' W 074°12'0 0.0
2017-May-20 16:00N 40°38' W 074°12'0 0.0
2017-May-20 15:30N 40°38' W 074°12'0 0.0
2017-May-20 15:00N 40°38' W 074°12'2 2.4
2017-May-20 14:00N 40°39' W 074°09'1 2.1
2017-May-20 13:30N 40°39' W 074°07'0 0.0
2017-May-20 13:00N 40°39' W 074°07'0 0.0
2017-May-20 12:30N 40°39' W 074°07'0 0.0
2017-May-20 12:00N 40°39' W 074°07'0 0.3
2017-May-20 11:30N 40°39' W 074°07'4 7.1
2017-May-20 11:00N 40°40' W 074°03'510.8
2017-May-20 10:31N 40°45' W 074°01'611.1
2017-May-20 10:00N 40°50' W 073°57'510.6
2017-May-20 09:30N 40°55' W 073°55'1 1.2
2017-May-20 08:58N 40°56' W 073°54'0 0.0
2017-May-20 08:28N 40°56' W 073°54'0 0.0
2017-May-20 07:58N 40°56' W 073°54'0 0.0
2017-May-20 07:28N 40°56' W 073°54'0 0.0
2017-May-20 06:52N 40°56' W 073°54'0 0.0
2017-May-20 06:28N 40°56' W 073°54'0 0.0
2017-May-20 05:58N 40°56' W 073°54'0 0.0
2017-May-20 05:28N 40°56' W 073°54'0 0.0
2017-May-20 04:58N 40°56' W 073°54'0 0.0
2017-May-20 04:28N 40°56' W 073°54'0 0.0
2017-May-20 03:55N 40°56' W 073°54'0 0.0
2017-May-20 03:25N 40°56' W 073°54'0 0.0
2017-May-20 02:55N 40°56' W 073°54'0 0.0
2017-May-20 02:28N 40°56' W 073°54'0 0.0
2017-May-20 01:55N 40°56' W 073°54'0 0.0
2017-May-20 01:28N 40°56' W 073°54'0 0.0
2017-May-20 00:58N 40°56' W 073°54'0 0.0
2017-May-20 00:28N 40°56' W 073°54'0 0.0
2017-May-19 23:55N 40°56' W 073°54'0 0.0
2017-May-19 23:28N 40°56' W 073°54'0 0.0
2017-May-19 22:55N 40°56' W 073°54'0 0.0
2017-May-19 22:28N 40°56' W 073°54'0 0.0
2017-May-19 21:58N 40°56' W 073°54'0 0.0
2017-May-19 21:25N 40°56' W 073°54'0 0.0
2017-May-19 20:58N 40°56' W 073°54'0 0.0
2017-May-19 20:25N 40°56' W 073°54'0 0.0
2017-May-19 19:55N 40°56' W 073°54'0 0.0
2017-May-19 19:19N 40°56' W 073°54'0 0.0
2017-May-19 18:58N 40°56' W 073°54'0 0.0
2017-May-19 18:22N 40°56' W 073°54'0 0.0
2017-May-19 17:58N 40°56' W 073°54'0 0.0
2017-May-19 17:28N 40°56' W 073°54'0 0.0
2017-May-19 16:55N 40°56' W 073°54'0 0.0
2017-May-19 16:25N 40°56' W 073°54'0 0.0
2017-May-19 15:55N 40°56' W 073°54'0 0.0
2017-May-19 15:28N 40°56' W 073°54'0 0.0
2017-May-19 14:58N 40°56' W 073°54'0 0.0
2017-May-19 13:58N 40°56' W 073°54'0 0.0
2017-May-19 13:25N 40°56' W 073°54'0 0.0
2017-May-19 12:46N 40°56' W 073°54'0 0.0
2017-May-19 12:25N 40°56' W 073°54'0 0.0
2017-May-19 11:55N 40°56' W 073°54'0 0.0
2017-May-19 11:28N 40°56' W 073°54'0 0.0
2017-May-19 10:58N 40°56' W 073°54'0 0.0
2017-May-19 10:28N 40°56' W 073°54'0 0.0
2017-May-19 09:58N 40°56' W 073°54'0 0.0
2017-May-19 09:28N 40°56' W 073°54'0 0.0
2017-May-19 08:55N 40°56' W 073°54'0 0.0
2017-May-19 08:28N 40°56' W 073°54'0 0.0
2017-May-19 07:58N 40°56' W 073°54'0 0.0
2017-May-19 07:25N 40°56' W 073°54'0 0.0
2017-May-19 06:55N 40°56' W 073°54'0 0.0
2017-May-19 06:28N 40°56' W 073°54'0 0.0
2017-May-19 05:58N 40°56' W 073°54'0 0.0
2017-May-19 05:28N 40°56' W 073°54'0 0.0
2017-May-19 04:55N 40°56' W 073°54'0 0.0
2017-May-19 04:19N 40°56' W 073°54'0 0.0
2017-May-19 03:49N 40°56' W 073°54'0 0.0
2017-May-19 03:28N 40°56' W 073°54'0 0.0
2017-May-19 02:55N 40°56' W 073°54'0 0.0
2017-May-19 02:28N 40°56' W 073°54'0 0.0
2017-May-19 01:58N 40°56' W 073°54'0 0.0
2017-May-19 01:28N 40°56' W 073°54'0 0.0
2017-May-19 00:58N 40°56' W 073°54'0 0.0
2017-May-19 00:28N 40°56' W 073°54'0 0.0
2017-May-18 23:55N 40°56' W 073°54'0 0.0
2017-May-18 23:28N 40°56' W 073°54'0 0.0
2017-May-18 22:58N 40°56' W 073°54'0 0.0
2017-May-18 22:25N 40°56' W 073°54'0 0.0
2017-May-18 21:58N 40°56' W 073°54'0 0.0
2017-May-18 21:28N 40°56' W 073°54'0 0.1
2017-May-18 20:56N 40°56' W 073°54'0 0.1
2017-May-18 20:29N 40°56' W 073°54'0 0.1
2017-May-18 19:59N 40°56' W 073°54'0 0.0
2017-May-18 19:26N 40°56' W 073°54'0 0.0
2017-May-18 18:53N 40°56' W 073°54'0 0.0
2017-May-18 18:26N 40°56' W 073°54'0 0.0
2017-May-18 17:59N 40°56' W 073°54'0 0.0
2017-May-18 17:29N 40°56' W 073°54'0 0.0
2017-May-18 16:53N 40°56' W 073°54'0 0.0
2017-May-18 16:29N 40°56' W 073°54'0 0.0
2017-May-18 15:56N 40°56' W 073°54'0 0.0
2017-May-18 15:29N 40°56' W 073°54'0 0.0
2017-May-18 14:59N 40°56' W 073°54'0 0.0
2017-May-18 13:59N 40°56' W 073°54'0 0.0
2017-May-18 13:23N 40°56' W 073°54'0 0.0
2017-May-18 12:56N 40°56' W 073°54'0 0.0
2017-May-18 12:29N 40°56' W 073°54'0 0.0
2017-May-18 11:59N 40°56' W 073°54'0 0.0
2017-May-18 11:29N 40°56' W 073°54'0 0.0
2017-May-18 10:59N 40°56' W 073°54'0 0.1
2017-May-18 10:27N 40°56' W 073°54'0 0.0
2017-May-18 09:51N 40°56' W 073°54'0 0.3
2017-May-18 09:27N 40°56' W 073°54'1 1.0
2017-May-18 08:56N 40°56' W 073°55'0 0.1
2017-May-18 08:23N 40°56' W 073°55'0 0.0
2017-May-18 07:53N 40°56' W 073°55'0 0.0
2017-May-18 07:29N 40°56' W 073°55'0 0.0
2017-May-18 06:47N 40°56' W 073°55'0 0.0
2017-May-18 06:29N 40°56' W 073°55'  

Dump ship's entire track history